createdAt,value
2023-02-22T00:01:02.974Z,8.90
2023-02-22T00:03:35.472Z,8.80
2023-02-22T00:06:05.108Z,8.80
2023-02-22T00:08:38.699Z,8.70
2023-02-22T00:11:09.490Z,8.70
2023-02-22T00:13:39.588Z,8.60
2023-02-22T00:16:07.460Z,8.50
2023-02-22T00:18:34.442Z,8.50
2023-02-22T00:21:02.856Z,8.40
2023-02-22T00:23:32.195Z,8.30
2023-02-22T00:26:01.938Z,8.30
2023-02-22T00:28:30.692Z,8.10
2023-02-22T00:31:00.099Z,8.00
2023-02-22T00:33:27.901Z,8.00
2023-02-22T00:35:56.462Z,7.90
2023-02-22T00:38:24.125Z,7.90
2023-02-22T00:40:52.722Z,7.80
2023-02-22T00:43:20.639Z,7.70
2023-02-22T00:45:49.150Z,7.60
2023-02-22T00:48:17.475Z,7.50
2023-02-22T00:50:45.411Z,7.50
2023-02-22T00:53:13.315Z,7.40
2023-02-22T00:55:41.808Z,7.30
2023-02-22T00:58:09.172Z,7.20
2023-02-22T01:00:40.039Z,7.10
2023-02-22T01:03:11.879Z,7.10
2023-02-22T01:05:38.923Z,7.00
2023-02-22T01:08:09.786Z,7.00
2023-02-22T01:10:38.758Z,6.90
2023-02-22T01:13:09.019Z,6.90
2023-02-22T01:15:39.613Z,6.80
2023-02-22T01:18:07.804Z,6.80
2023-02-22T01:20:35.132Z,6.70
2023-02-22T01:23:06.494Z,6.60
2023-02-22T01:25:34.820Z,6.60
2023-02-22T01:28:06.200Z,6.50
2023-02-22T01:30:37.081Z,6.50
2023-02-22T01:33:09.041Z,6.40
2023-02-22T01:35:42.122Z,6.40
2023-02-22T01:38:10.586Z,6.30
2023-02-22T01:40:42.789Z,6.20
2023-02-22T01:43:20.088Z,6.10
2023-02-22T01:45:55.727Z,6.10
2023-02-22T01:48:32.756Z,6.00
2023-02-22T01:51:11.402Z,6.00
2023-02-22T01:53:58.391Z,5.90
2023-02-22T01:56:31.283Z,5.90
2023-02-22T01:59:08.108Z,5.90
2023-02-22T02:01:38.511Z,5.90
2023-02-22T02:04:21.922Z,5.90
2023-02-22T02:06:50.269Z,5.90
2023-02-22T02:09:42.455Z,5.80
2023-02-22T02:12:12.784Z,5.70
2023-02-22T02:14:42.351Z,5.60
2023-02-22T02:17:13.213Z,5.50
2023-02-22T02:20:07.486Z,5.50
2023-02-22T02:23:15.371Z,5.40
2023-02-22T02:26:15.310Z,5.30
2023-02-22T02:28:46.258Z,5.30
2023-02-22T02:31:39.718Z,5.30
2023-02-22T02:34:19.053Z,5.20
2023-02-22T02:37:28.932Z,5.20
2023-02-22T02:40:32.180Z,5.20
2023-02-22T02:43:15.778Z,5.10
2023-02-22T02:45:59.493Z,5.10
2023-02-22T02:48:29.039Z,5.00
2023-02-22T02:51:01.518Z,4.90
2023-02-22T02:53:38.458Z,5.00
2023-02-22T02:56:06.363Z,4.90
2023-02-22T02:58:34.298Z,4.90
2023-02-22T03:01:06.039Z,4.80
2023-02-22T03:04:06.043Z,4.80
2023-02-22T03:07:01.135Z,4.70
2023-02-22T03:09:38.828Z,4.70
2023-02-22T03:12:15.500Z,4.60
2023-02-22T03:15:15.554Z,4.60
2023-02-22T03:18:17.726Z,4.60
2023-02-22T03:21:00.478Z,4.60
2023-02-22T03:23:55.476Z,4.60
2023-02-22T03:26:32.392Z,4.60
2023-02-22T03:29:05.320Z,4.50
2023-02-22T03:31:41.214Z,4.60
2023-02-22T03:34:17.057Z,4.60
2023-02-22T03:36:50.194Z,4.60
2023-02-22T03:39:20.995Z,4.50
2023-02-22T03:42:01.831Z,4.50
2023-02-22T03:44:32.781Z,4.50
2023-02-22T03:47:07.101Z,4.50
2023-02-22T03:49:54.642Z,4.50
2023-02-22T03:52:25.489Z,4.40
2023-02-22T03:54:54.465Z,4.40
2023-02-22T03:57:35.396Z,4.40
2023-02-22T04:00:14.932Z,4.30
2023-02-22T04:02:42.732Z,4.30
2023-02-22T04:05:11.154Z,4.20
2023-02-22T04:07:41.789Z,4.20
2023-02-22T04:10:10.769Z,4.20
2023-02-22T04:12:37.911Z,4.10
2023-02-22T04:15:08.636Z,4.10
2023-02-22T04:17:35.755Z,4.10
2023-02-22T04:20:04.673Z,4.10
2023-02-22T04:22:31.488Z,4.10
2023-02-22T04:25:00.503Z,4.10
2023-02-22T04:27:28.330Z,4.10
2023-02-22T04:29:56.348Z,4.10
2023-02-22T04:32:23.287Z,4.10
2023-02-22T04:34:50.122Z,4.10
2023-02-22T04:37:18.703Z,4.10
2023-02-22T04:39:47.092Z,4.10
2023-02-22T04:42:14.951Z,4.10
2023-02-22T04:44:42.866Z,4.10
2023-02-22T04:47:09.803Z,4.10
2023-02-22T04:49:39.146Z,4.00
2023-02-22T04:52:07.648Z,4.00
2023-02-22T04:54:35.546Z,4.00
2023-02-22T04:57:02.395Z,4.00
2023-02-22T04:59:30.391Z,3.90
2023-02-22T05:01:58.309Z,3.90
2023-02-22T05:04:26.112Z,3.90
2023-02-22T05:06:55.065Z,3.90
2023-02-22T05:09:22.182Z,4.00
2023-02-22T05:11:49.375Z,4.00
2023-02-22T05:14:16.920Z,4.00
2023-02-22T05:16:44.851Z,4.00
2023-02-22T05:19:12.812Z,4.00
2023-02-22T05:21:41.685Z,4.00
2023-02-22T05:24:09.522Z,4.00
2023-02-22T05:26:36.291Z,4.00
2023-02-22T05:29:03.977Z,4.00
2023-02-22T05:31:31.453Z,4.00
2023-02-22T05:33:58.721Z,4.10
2023-02-22T05:36:26.216Z,4.10
2023-02-22T05:38:53.127Z,4.10
2023-02-22T05:41:21.306Z,4.10
2023-02-22T05:43:50.500Z,4.10
2023-02-22T05:46:17.521Z,4.10
2023-02-22T05:48:44.815Z,4.00
2023-02-22T05:51:12.738Z,3.90
2023-02-22T05:53:39.658Z,3.90
2023-02-22T05:56:07.195Z,4.00
2023-02-22T05:58:35.509Z,4.00
2023-02-22T06:01:03.495Z,4.00
2023-02-22T06:03:30.410Z,4.00
2023-02-22T06:05:58.184Z,4.00
2023-02-22T06:08:25.119Z,4.00
2023-02-22T06:10:54.473Z,4.00
2023-02-22T06:13:22.204Z,4.00
2023-02-22T06:15:49.206Z,3.90
2023-02-22T06:18:16.855Z,3.90
2023-02-22T06:20:44.759Z,3.90
2023-02-22T06:23:12.697Z,3.90
2023-02-22T06:25:40.637Z,3.90
2023-02-22T06:28:09.529Z,3.90
2023-02-22T06:30:37.275Z,3.90
2023-02-22T06:33:04.376Z,3.90
2023-02-22T06:35:32.302Z,3.80
2023-02-22T06:37:59.243Z,3.70
2023-02-22T06:40:29.716Z,3.80
2023-02-22T06:43:00.151Z,3.90
2023-02-22T06:45:27.642Z,3.90
2023-02-22T06:47:55.895Z,4.00
2023-02-22T06:50:29.781Z,4.10
2023-02-22T06:52:59.742Z,4.10
2023-02-22T06:55:32.674Z,4.20
2023-02-22T06:58:01.465Z,4.20
2023-02-22T07:00:31.501Z,4.30
2023-02-22T07:03:01.451Z,4.30
2023-02-22T07:05:29.337Z,4.40
2023-02-22T07:08:04.981Z,4.40
2023-02-22T07:10:34.998Z,4.50
2023-02-22T07:13:04.333Z,4.50
2023-02-22T07:15:33.806Z,4.50
2023-02-22T07:18:01.580Z,4.50
2023-02-22T07:20:31.131Z,4.40
2023-02-22T07:22:59.779Z,4.50
2023-02-22T07:25:27.183Z,4.50
2023-02-22T07:27:54.600Z,4.50
2023-02-22T07:30:31.227Z,4.50
2023-02-22T07:33:02.392Z,4.60
2023-02-22T07:35:33.254Z,4.60
2023-02-22T07:38:00.216Z,4.70
2023-02-22T07:40:28.288Z,4.70
2023-02-22T07:43:15.134Z,4.80
2023-02-22T07:45:43.756Z,4.80
2023-02-22T07:48:12.504Z,4.90
2023-02-22T07:50:42.889Z,4.90
2023-02-22T07:53:20.795Z,5.00
2023-02-22T07:55:52.319Z,5.00
2023-02-22T07:58:23.721Z,5.00
2023-02-22T08:00:52.548Z,5.10
2023-02-22T08:03:22.566Z,5.10
2023-02-22T08:05:58.395Z,5.20
2023-02-22T08:08:25.325Z,5.30
2023-02-22T08:10:54.386Z,5.30
2023-02-22T08:13:23.175Z,5.20
2023-02-22T08:15:55.006Z,5.20
2023-02-22T08:18:24.106Z,5.30
2023-02-22T08:20:54.628Z,5.40
2023-02-22T08:23:25.416Z,5.50
2023-02-22T08:25:53.188Z,5.50
2023-02-22T08:28:25.347Z,5.60
2023-02-22T08:30:52.695Z,5.70
2023-02-22T08:33:22.662Z,5.80
2023-02-22T08:35:52.440Z,5.90
2023-02-22T08:38:29.497Z,6.00
2023-02-22T08:40:57.268Z,6.10
2023-02-22T08:43:25.218Z,6.20
2023-02-22T08:45:54.048Z,6.30
2023-02-22T08:48:22.330Z,6.40
2023-02-22T08:50:50.834Z,6.40
2023-02-22T08:53:18.889Z,6.50
2023-02-22T08:55:46.798Z,6.50
2023-02-22T08:58:14.527Z,6.50
2023-02-22T09:00:45.496Z,6.60
2023-02-22T09:03:15.919Z,6.70
2023-02-22T09:05:43.941Z,6.80
2023-02-22T09:08:11.014Z,6.90
2023-02-22T09:10:38.136Z,7.00
2023-02-22T09:13:05.468Z,7.00
2023-02-22T09:15:36.184Z,7.10
2023-02-22T09:18:06.937Z,7.10
2023-02-22T09:20:35.948Z,7.10
2023-02-22T09:23:06.318Z,7.20
2023-02-22T09:25:34.231Z,7.30
2023-02-22T09:28:02.618Z,7.40
2023-02-22T09:30:37.628Z,7.60
2023-02-22T09:33:12.361Z,7.70
2023-02-22T09:35:43.003Z,7.90
2023-02-22T09:38:11.659Z,8.10
2023-02-22T09:40:51.247Z,8.30
2023-02-22T09:43:35.922Z,8.40
2023-02-22T09:46:28.313Z,8.60
2023-02-22T09:49:40.142Z,8.70
2023-02-22T09:52:27.487Z,9.00
2023-02-22T09:55:10.271Z,9.20
2023-02-22T09:57:43.808Z,9.50
2023-02-22T10:00:22.166Z,9.70
2023-02-22T10:03:29.512Z,9.90
2023-02-22T10:06:12.511Z,10.00
2023-02-22T10:08:41.069Z,10.20
2023-02-22T10:11:27.504Z,10.30
2023-02-22T10:14:16.113Z,10.40
2023-02-22T10:17:24.445Z,10.50
2023-02-22T10:20:14.034Z,10.70
2023-02-22T10:23:20.602Z,10.80
2023-02-22T10:25:57.387Z,11.00
2023-02-22T10:28:33.230Z,11.20
2023-02-22T10:31:20.171Z,11.30
2023-02-22T10:33:50.638Z,11.40
2023-02-22T10:36:24.145Z,11.60
2023-02-22T10:39:18.849Z,11.70
2023-02-22T10:41:52.895Z,11.90
2023-02-22T10:44:20.311Z,12.10
2023-02-22T10:46:48.754Z,12.20
2023-02-22T10:49:25.142Z,12.40
2023-02-22T10:52:04.613Z,12.50
2023-02-22T10:54:37.972Z,12.60
2023-02-22T10:57:05.888Z,12.70
2023-02-22T10:59:37.214Z,12.80
2023-02-22T11:02:31.517Z,12.80
2023-02-22T11:05:01.449Z,12.90
2023-02-22T11:07:34.464Z,13.00
2023-02-22T11:10:05.468Z,13.00
2023-02-22T11:12:39.393Z,13.10
2023-02-22T11:15:24.302Z,13.20
2023-02-22T11:17:55.738Z,13.30
2023-02-22T11:20:25.764Z,13.40
2023-02-22T11:22:57.991Z,13.60
2023-02-22T11:25:39.733Z,13.80
2023-02-22T11:28:21.629Z,13.80
2023-02-22T11:30:52.074Z,14.00
2023-02-22T11:33:26.692Z,14.10
2023-02-22T11:36:00.746Z,14.20
2023-02-22T11:38:41.453Z,14.40
2023-02-22T11:41:17.956Z,14.50
2023-02-22T11:43:51.443Z,14.60
2023-02-22T11:46:23.304Z,14.70
2023-02-22T11:50:31.311Z,14.90
2023-02-22T11:53:25.368Z,15.00
2023-02-22T12:00:50.387Z,15.30
2023-02-22T12:05:06.234Z,15.30
2023-02-22T12:13:09.616Z,15.50
2023-02-22T12:53:26.149Z,16.10
2023-02-22T12:56:16.012Z,16.10
2023-02-22T12:58:54.222Z,16.10
2023-02-22T13:01:30.064Z,16.30
2023-02-22T13:03:56.929Z,16.30
2023-02-22T13:06:42.740Z,16.30
2023-02-22T13:09:26.556Z,16.20
2023-02-22T13:12:44.917Z,16.30
2023-02-22T13:15:31.396Z,16.30
2023-02-22T13:18:23.378Z,16.40
2023-02-22T13:21:24.084Z,16.30
2023-02-22T13:24:30.357Z,16.30
2023-02-22T13:27:08.974Z,16.30
2023-02-22T13:29:42.457Z,16.20
2023-02-22T13:32:36.714Z,16.20
2023-02-22T13:35:40.967Z,16.30
2023-02-22T13:38:28.448Z,16.30
2023-02-22T13:41:31.946Z,16.30
2023-02-22T13:44:31.045Z,16.30
2023-02-22T13:47:17.109Z,16.40
2023-02-22T13:50:17.106Z,16.40
2023-02-22T13:52:47.061Z,16.40
2023-02-22T13:55:24.715Z,16.40
2023-02-22T13:58:03.583Z,16.50
2023-02-22T14:00:51.405Z,16.30
2023-02-22T14:03:41.490Z,16.20
2023-02-22T14:06:31.244Z,16.10
2023-02-22T14:09:14.508Z,16.00
2023-02-22T14:11:43.552Z,16.00
2023-02-22T14:14:14.700Z,15.90
2023-02-22T14:16:42.463Z,15.90
2023-02-22T14:19:23.809Z,16.00
2023-02-22T14:22:04.460Z,16.00
2023-02-22T14:24:45.122Z,16.10
2023-02-22T14:27:13.233Z,16.00
2023-02-22T14:29:55.875Z,15.80
2023-02-22T14:32:32.952Z,15.80
2023-02-22T14:35:28.705Z,15.70
2023-02-22T14:38:00.775Z,15.70
2023-02-22T14:40:34.801Z,15.70
2023-02-22T14:43:19.949Z,15.50
2023-02-22T14:46:19.708Z,15.50
2023-02-22T14:48:49.345Z,15.40
2023-02-22T14:51:42.449Z,15.40
2023-02-22T14:54:25.650Z,15.30
2023-02-22T14:57:15.087Z,15.20
2023-02-22T15:00:01.244Z,15.20
2023-02-22T15:02:38.708Z,15.00
2023-02-22T15:05:05.914Z,15.00
2023-02-22T15:07:35.721Z,15.00
2023-02-22T15:10:21.285Z,15.00
2023-02-22T15:13:09.810Z,14.90
2023-02-22T15:15:49.900Z,14.80
2023-02-22T15:18:53.252Z,14.80
2023-02-22T15:21:24.490Z,14.70
2023-02-22T15:23:56.692Z,14.70
2023-02-22T15:26:36.127Z,14.60
2023-02-22T15:29:15.146Z,14.60
2023-02-22T15:31:48.337Z,14.50
2023-02-22T15:34:15.614Z,14.50
2023-02-22T15:36:46.929Z,14.40
2023-02-22T15:39:30.454Z,14.30
2023-02-22T15:42:21.120Z,14.30
2023-02-22T15:44:55.632Z,14.30
2023-02-22T15:47:32.488Z,14.20
2023-02-22T15:50:27.024Z,14.10
2023-02-22T15:53:03.290Z,14.10
2023-02-22T15:55:42.288Z,14.00
2023-02-22T15:58:25.519Z,13.90
2023-02-22T16:01:12.433Z,13.90
2023-02-22T16:03:45.463Z,13.80
2023-02-22T16:06:15.936Z,13.80
2023-02-22T16:08:55.055Z,13.80
2023-02-22T16:11:31.164Z,13.70
2023-02-22T16:14:35.224Z,13.60
2023-02-22T16:18:01.332Z,13.60
2023-02-22T16:20:32.509Z,13.60
2023-02-22T16:23:00.171Z,13.40
2023-02-22T16:25:40.325Z,13.30
2023-02-22T16:28:33.971Z,13.20
2023-02-22T16:31:02.221Z,13.20
2023-02-22T16:33:34.264Z,13.10
2023-02-22T16:36:08.113Z,13.00
2023-02-22T16:38:38.702Z,12.90
2023-02-22T16:41:07.770Z,12.80
2023-02-22T16:43:36.269Z,12.70
2023-02-22T16:46:04.772Z,12.60
2023-02-22T16:48:34.263Z,12.60
2023-02-22T16:51:14.923Z,12.60
2023-02-22T16:53:42.231Z,12.60
2023-02-22T16:56:12.052Z,12.50
2023-02-22T16:58:40.938Z,12.40
2023-02-22T17:01:09.128Z,12.40
2023-02-22T17:03:36.799Z,12.40
2023-02-22T17:06:04.277Z,12.40
2023-02-22T17:08:32.732Z,12.30
2023-02-22T17:11:00.781Z,12.30
2023-02-22T17:13:29.769Z,12.30
2023-02-22T17:15:58.293Z,12.20
2023-02-22T17:18:30.605Z,12.20
2023-02-22T17:20:57.803Z,12.10
2023-02-22T17:23:27.527Z,12.10
2023-02-22T17:26:02.462Z,12.00
2023-02-22T17:28:31.788Z,12.00
2023-02-22T17:31:02.216Z,12.00
2023-02-22T17:33:33.834Z,12.00
2023-02-22T17:36:03.497Z,12.00
2023-02-22T17:38:32.729Z,11.90
2023-02-22T17:41:01.430Z,11.80
2023-02-22T17:43:29.304Z,11.80
2023-02-22T17:45:57.160Z,11.80
2023-02-22T17:48:24.614Z,11.70
2023-02-22T17:50:53.588Z,11.70
2023-02-22T17:53:22.940Z,11.60
2023-02-22T17:55:51.388Z,11.50
2023-02-22T17:58:19.343Z,11.50
2023-02-22T18:00:49.133Z,11.50
2023-02-22T18:03:25.671Z,11.40
2023-02-22T18:06:00.845Z,11.40
2023-02-22T18:08:31.062Z,11.30
2023-02-22T18:10:58.952Z,11.20
2023-02-22T18:13:27.910Z,11.20
2023-02-22T18:15:59.926Z,11.10
2023-02-22T18:18:27.705Z,11.10
2023-02-22T18:21:00.029Z,11.10
2023-02-22T18:23:30.509Z,11.00
2023-02-22T18:26:10.067Z,11.00
2023-02-22T18:28:39.037Z,11.00
2023-02-22T18:31:16.303Z,11.00
2023-02-22T18:33:45.646Z,11.00
2023-02-22T18:36:14.725Z,10.90
2023-02-22T18:38:43.772Z,10.80
2023-02-22T18:41:17.281Z,10.80
2023-02-22T18:43:46.784Z,10.80
2023-02-22T18:46:18.286Z,10.80
2023-02-22T18:48:53.792Z,10.90
2023-02-22T18:51:21.698Z,10.90
2023-02-22T18:53:50.454Z,10.80
2023-02-22T18:56:22.333Z,10.70
2023-02-22T18:58:54.380Z,10.70
2023-02-22T19:01:23.048Z,10.70
2023-02-22T19:03:51.773Z,10.70
2023-02-22T19:06:22.500Z,10.70
2023-02-22T19:08:51.246Z,10.70
2023-02-22T19:11:22.143Z,10.70
2023-02-22T19:13:53.982Z,10.60
2023-02-22T19:16:23.615Z,10.70
2023-02-22T19:18:57.070Z,10.60
2023-02-22T19:21:27.152Z,10.60
2023-02-22T19:23:57.430Z,10.60
2023-02-22T19:26:27.409Z,10.60
2023-02-22T19:28:58.527Z,10.60
2023-02-22T19:31:34.267Z,10.50
2023-02-22T19:34:05.057Z,10.50
2023-02-22T19:36:32.775Z,10.50
2023-02-22T19:39:03.111Z,10.50
2023-02-22T19:41:30.773Z,10.50
2023-02-22T19:43:58.792Z,10.40
2023-02-22T19:46:25.767Z,10.40
2023-02-22T19:48:55.610Z,10.40
2023-02-22T19:51:26.538Z,10.40
2023-02-22T19:54:04.614Z,10.40
2023-02-22T19:56:35.184Z,10.30
2023-02-22T19:59:17.079Z,10.40
2023-02-22T20:01:44.721Z,10.30
2023-02-22T20:04:18.459Z,10.30
2023-02-22T20:06:48.391Z,10.30
2023-02-22T20:09:20.140Z,10.30
2023-02-22T20:11:48.777Z,10.20
2023-02-22T20:14:23.565Z,10.20
2023-02-22T20:16:55.961Z,10.20
2023-02-22T20:19:24.556Z,10.20
2023-02-22T20:21:55.755Z,10.10
2023-02-22T20:24:28.001Z,10.10
2023-02-22T20:26:57.509Z,10.10
2023-02-22T20:29:31.792Z,10.10
2023-02-22T20:32:03.089Z,10.10
2023-02-22T20:34:33.918Z,10.10
2023-02-22T20:37:02.171Z,10.10
2023-02-22T20:39:29.614Z,10.00
2023-02-22T20:42:00.623Z,10.00
2023-02-22T20:44:28.643Z,9.90
2023-02-22T20:46:55.897Z,9.90
2023-02-22T20:49:23.684Z,9.90
2023-02-22T20:51:51.424Z,9.80
2023-02-22T20:54:18.689Z,9.80
2023-02-22T20:56:48.544Z,9.70
2023-02-22T20:59:19.393Z,9.70
2023-02-22T21:01:50.257Z,9.60
2023-02-22T21:04:17.788Z,9.60
2023-02-22T21:06:48.560Z,9.50
2023-02-22T21:09:19.664Z,9.50
2023-02-22T21:11:47.914Z,9.50
2023-02-22T21:14:19.827Z,9.40
2023-02-22T21:16:50.099Z,9.40
2023-02-22T21:19:27.152Z,9.30
2023-02-22T21:21:57.902Z,9.30
2023-02-22T21:24:27.552Z,9.30
2023-02-22T21:26:58.741Z,9.20
2023-02-22T21:29:27.600Z,9.20
2023-02-22T21:31:54.821Z,9.10
2023-02-22T21:34:22.559Z,9.00
2023-02-22T21:36:50.645Z,9.00
2023-02-22T21:39:21.141Z,9.00
2023-02-22T21:41:52.509Z,8.90
2023-02-22T21:44:22.103Z,8.80
2023-02-22T21:46:50.038Z,8.80
2023-02-22T21:49:19.153Z,8.70
2023-02-22T21:51:46.376Z,8.60
2023-02-22T21:54:13.778Z,8.60
2023-02-22T21:56:43.538Z,8.50
2023-02-22T21:59:15.247Z,8.50
2023-02-22T22:01:49.845Z,8.40
2023-02-22T22:04:24.168Z,8.40
2023-02-22T22:06:54.288Z,8.30
2023-02-22T22:09:23.677Z,8.20
2023-02-22T22:11:59.186Z,8.20
2023-02-22T22:14:28.129Z,8.10
2023-02-22T22:17:00.952Z,7.90
2023-02-22T22:19:30.495Z,7.90
2023-02-22T22:21:58.861Z,7.70
2023-02-22T22:24:29.784Z,7.70
2023-02-22T22:27:03.435Z,7.70
2023-02-22T22:29:34.746Z,7.80
2023-02-22T22:32:03.594Z,7.80
2023-02-22T22:34:30.527Z,7.60
2023-02-22T22:36:58.934Z,7.60
2023-02-22T22:39:28.022Z,7.70
2023-02-22T22:41:55.170Z,7.70
2023-02-22T22:44:26.882Z,7.70
2023-02-22T22:46:54.953Z,7.70
2023-02-22T22:49:25.370Z,7.70
2023-02-22T22:51:52.889Z,7.60
2023-02-22T22:54:19.790Z,7.60
2023-02-22T22:56:46.723Z,7.50
2023-02-22T22:59:14.587Z,7.50
2023-02-22T23:01:47.400Z,7.50
2023-02-22T23:04:17.498Z,7.50
2023-02-22T23:06:52.356Z,7.50
2023-02-22T23:09:31.630Z,7.40
2023-02-22T23:12:09.155Z,7.40
2023-02-22T23:14:44.991Z,7.30
2023-02-22T23:17:26.784Z,7.40
2023-02-22T23:19:53.666Z,7.10
2023-02-22T23:22:21.279Z,6.90
2023-02-22T23:24:49.783Z,7.00
2023-02-22T23:27:19.396Z,7.00
2023-02-22T23:29:49.698Z,6.90
2023-02-22T23:32:17.488Z,6.90
2023-02-22T23:34:44.544Z,7.00
2023-02-22T23:37:14.078Z,7.00
2023-02-22T23:39:42.216Z,7.10
2023-02-22T23:42:10.065Z,7.00
2023-02-22T23:44:36.971Z,7.10
2023-02-22T23:47:05.215Z,7.10
2023-02-22T23:49:38.111Z,7.10
2023-02-22T23:52:07.815Z,7.10
2023-02-22T23:54:40.398Z,7.10
2023-02-22T23:57:08.848Z,7.10
2023-02-22T23:59:40.628Z,7.10
